Time;durP1;ratioP1;P1;durP2;ratioP2;P2;SDS_P1;SDS_P2;PMS_P1;PMS_P2;Temp;Humidity;BMP_temperature;BMP_pressure;BME280_temperature;BME280_humidity;BME280_pressure;Samples;Min_cycle;Max_cycle;Signal;HPM_P1;HPM_P2
2020/12/08 00:00:27;;;;;;;34.85;16.88;;;9.00;75.70;;;;;;5096057;28;20119;-67
2020/12/08 00:02:53;;;;;;;33.65;17.35;;;9.00;75.60;;;;;;5096191;28;20032;-67
2020/12/08 00:05:22;;;;;;;34.22;17.60;;;9.00;75.70;;;;;;5095573;28;20036;-67
2020/12/08 00:07:51;;;;;;;30.30;15.88;;;8.90;75.70;;;;;;5095965;28;20035;-67
2020/12/08 00:10:20;;;;;;;32.13;15.65;;;9.00;75.70;;;;;;5096141;28;20028;-67
2020/12/08 00:12:53;;;;;;;32.38;15.85;;;8.90;75.70;;;;;;5095505;28;20533;-67
2020/12/08 00:15:19;;;;;;;29.80;15.63;;;8.90;75.80;;;;;;5095967;28;20064;-67
2020/12/08 00:17:45;;;;;;;33.95;16.30;;;9.00;75.80;;;;;;5096168;28;20043;-67
2020/12/08 00:20:12;;;;;;;32.10;15.57;;;9.00;75.80;;;;;;5095619;28;20032;-67
2020/12/08 00:22:38;;;;;;;33.13;16.75;;;9.00;75.90;;;;;;5095389;28;20503;-67
2020/12/08 00:25:06;;;;;;;29.90;15.93;;;9.00;75.90;;;;;;5095438;28;20024;-67
2020/12/08 00:27:32;;;;;;;33.35;15.90;;;8.90;75.80;;;;;;5095599;28;20040;-67
2020/12/08 00:29:57;;;;;;;34.92;16.80;;;9.00;75.90;;;;;;5095487;28;20028;-67
2020/12/08 00:32:23;;;;;;;32.13;16.45;;;9.00;76.00;;;;;;5095334;28;20028;-67
2020/12/08 00:34:48;;;;;;;33.47;16.02;;;8.90;75.90;;;;;;5095543;28;20533;-67
2020/12/08 00:37:14;;;;;;;31.58;15.88;;;8.90;75.90;;;;;;5095665;28;20069;-67
2020/12/08 00:39:40;;;;;;;36.53;17.38;;;8.90;76.00;;;;;;5095231;28;20028;-67
2020/12/08 00:42:06;;;;;;;31.38;16.27;;;8.90;76.00;;;;;;5095256;28;20422;-67
2020/12/08 00:44:33;;;;;;;31.65;15.40;;;8.90;76.10;;;;;;5095430;28;20510;-67
2020/12/08 00:46:59;;;;;;;33.00;16.58;;;8.80;76.10;;;;;;5093586;28;20044;-67
2020/12/08 00:49:25;;;;;;;35.58;18.10;;;8.80;76.20;;;;;;5094213;28;20034;-67
2020/12/08 00:52:00;;;;;;;37.20;16.45;;;8.90;76.30;;;;;;5095326;28;20059;-67
2020/12/08 00:54:29;;;;;;;30.38;15.02;;;8.80;76.30;;;;;;5093493;28;20020;-67
2020/12/08 00:56:55;;;;;;;31.20;15.48;;;8.80;76.40;;;;;;5093702;28;20046;-67
2020/12/08 00:59:21;;;;;;;29.85;15.52;;;8.80;77.10;;;;;;5095252;28;20503;-67
2020/12/08 01:01:49;;;;;;;31.60;15.82;;;8.80;76.50;;;;;;5093308;28;20480;-67
2020/12/08 01:04:16;;;;;;;36.30;15.80;;;8.80;76.60;;;;;;5092988;28;20033;-67
2020/12/08 01:06:42;;;;;;;30.88;15.18;;;8.80;76.60;;;;;;5093873;28;20040;-67
2020/12/08 01:09:09;;;;;;;31.35;16.05;;;8.80;76.60;;;;;;5093103;28;20074;-67
2020/12/08 01:11:42;;;;;;;29.23;15.45;;;8.70;76.60;;;;;;5093483;28;20114;-67
2020/12/08 01:14:11;;;;;;;31.52;14.73;;;8.80;76.70;;;;;;5093475;28;20166;-67
2020/12/08 01:16:38;;;;;;;31.85;15.55;;;8.80;76.70;;;;;;5093044;28;20028;-67
2020/12/08 01:19:06;;;;;;;30.77;14.10;;;8.70;76.60;;;;;;5093257;28;20388;-67
2020/12/08 01:21:32;;;;;;;33.47;14.10;;;8.80;76.70;;;;;;5092882;28;20071;-67
2020/12/08 01:23:58;;;;;;;24.80;14.23;;;8.80;76.80;;;;;;5093236;28;20052;-67
2020/12/08 01:26:25;;;;;;;28.05;14.40;;;8.80;76.80;;;;;;5094554;28;20077;-67
2020/12/08 01:28:53;;;;;;;25.92;13.57;;;8.80;76.80;;;;;;5092844;28;20143;-67
2020/12/08 01:31:32;;;;;;;30.10;14.43;;;8.80;76.80;;;;;;5093048;28;20024;-67
2020/12/08 01:34:02;;;;;;;27.45;14.05;;;8.80;76.80;;;;;;5094699;28;20030;-68
2020/12/08 01:36:28;;;;;;;25.75;13.90;;;8.80;76.80;;;;;;5093974;28;20032;-67
2020/12/08 01:38:54;;;;;;;30.20;14.48;;;8.80;76.80;;;;;;5093096;28;20026;-67
2020/12/08 01:41:20;;;;;;;26.88;14.05;;;8.80;76.80;;;;;;5093266;28;20094;-67
2020/12/08 01:43:51;;;;;;;27.92;14.27;;;8.80;76.80;;;;;;5092465;28;20467;-67
2020/12/08 01:46:23;;;;;;;22.65;12.02;;;8.80;76.80;;;;;;5092793;28;20035;-67
2020/12/08 01:48:49;;;;;;;27.30;14.30;;;8.80;76.80;;;;;;5092947;28;20040;-67
2020/12/08 01:51:17;;;;;;;26.95;13.90;;;8.80;76.70;;;;;;5092495;28;20101;-67
2020/12/08 01:53:46;;;;;;;25.10;12.95;;;8.80;76.80;;;;;;5092835;28;20467;-67
2020/12/08 01:56:12;;;;;;;27.05;12.75;;;8.90;76.90;;;;;;5094358;28;20028;-67
2020/12/08 01:58:38;;;;;;;27.33;12.82;;;8.80;76.90;;;;;;5092243;28;20035;-67
2020/12/08 02:01:05;;;;;;;24.88;13.13;;;8.80;76.80;;;;;;5092684;28;20024;-67
2020/12/08 02:03:31;;;;;;;24.10;12.20;;;8.80;76.90;;;;;;5093878;28;20024;-67
2020/12/08 02:06:05;;;;;;;24.95;12.65;;;8.90;77.00;;;;;;5092502;28;20055;-67
2020/12/08 02:08:36;;;;;;;26.98;11.38;;;8.90;76.90;;;;;;5094118;28;20028;-67
2020/12/08 02:11:06;;;;;;;18.90;10.40;;;8.90;76.90;;;;;;5092072;28;20020;-67
2020/12/08 02:13:34;;;;;;;25.80;13.27;;;8.90;76.90;;;;;;5092283;28;20605;-67
2020/12/08 02:16:01;;;;;;;26.65;13.40;;;8.90;76.90;;;;;;5091762;28;20460;-67
2020/12/08 02:18:27;;;;;;;26.25;13.80;;;8.90;76.80;;;;;;5091989;28;20027;-67
2020/12/08 02:20:59;;;;;;;27.25;12.88;;;8.90;76.90;;;;;;5093595;28;20125;-67
2020/12/08 02:23:28;;;;;;;26.02;12.73;;;8.90;76.80;;;;;;5092324;28;20136;-67
2020/12/08 02:25:58;;;;;;;27.88;12.85;;;8.90;76.80;;;;;;5093246;28;20031;-67
2020/12/08 02:28:25;;;;;;;25.88;12.73;;;8.90;76.90;;;;;;5092111;28;20552;-67
2020/12/08 02:30:52;;;;;;;26.63;14.00;;;8.90;76.80;;;;;;5092532;28;20024;-67
2020/12/08 02:33:22;;;;;;;27.88;14.07;;;9.00;76.80;;;;;;5093129;28;20176;-67
2020/12/08 02:35:48;;;;;;;25.23;13.48;;;8.90;76.80;;;;;;5093368;28;20024;-67
2020/12/08 02:38:14;;;;;;;26.17;13.32;;;8.90;76.80;;;;;;5092302;28;20032;-67
2020/12/08 02:40:40;;;;;;;25.15;12.98;;;8.90;76.70;;;;;;5091865;28;20361;-67
2020/12/08 02:43:05;;;;;;;27.67;14.43;;;8.90;76.60;;;;;;5091929;28;20034;-67
2020/12/08 02:45:31;;;;;;;26.25;14.80;;;8.90;76.80;;;;;;5092148;28;20101;-67
2020/12/08 02:47:58;;;;;;;24.95;13.93;;;8.90;76.80;;;;;;5091771;28;20036;-67
2020/12/08 02:50:23;;;;;;;32.10;14.82;;;8.90;76.80;;;;;;5092119;28;20073;-67
2020/12/08 02:52:50;;;;;;;30.63;14.90;;;8.90;76.80;;;;;;5091472;28;20028;-67
2020/12/08 02:55:17;;;;;;;27.30;14.05;;;8.80;76.80;;;;;;5091878;28;20035;-67
2020/12/08 02:57:48;;;;;;;26.50;14.50;;;8.90;76.90;;;;;;5092271;28;20036;-67
2020/12/08 03:00:14;;;;;;;28.15;14.65;;;8.90;76.90;;;;;;5091578;28;20024;-67
2020/12/08 03:02:39;;;;;;;27.38;14.05;;;8.90;77.00;;;;;;5092883;28;20392;-67
2020/12/08 03:05:06;;;;;;;28.80;15.68;;;8.90;77.00;;;;;;5092199;28;20024;-67
2020/12/08 03:07:32;;;;;;;27.23;15.23;;;8.80;76.90;;;;;;5091658;28;20039;-67
2020/12/08 03:09:58;;;;;;;25.95;14.57;;;8.80;77.00;;;;;;5091776;28;20024;-67
2020/12/08 03:12:24;;;;;;;32.03;15.90;;;8.80;77.00;;;;;;5091926;28;20028;-67
2020/12/08 03:14:53;;;;;;;31.70;14.43;;;8.80;77.00;;;;;;5091236;28;20104;-67
2020/12/08 03:17:34;;;;;;;29.63;16.08;;;8.80;77.10;;;;;;5091823;28;20169;-67
2020/12/08 03:20:00;;;;;;;31.00;15.70;;;8.80;77.10;;;;;;5092320;28;20024;-67
2020/12/08 03:22:29;;;;;;;28.60;15.23;;;8.80;77.10;;;;;;5091118;28;20497;-67
2020/12/08 03:24:57;;;;;;;27.08;14.90;;;8.80;77.10;;;;;;5091655;28;20040;-67
2020/12/08 03:27:25;;;;;;;32.05;17.23;;;8.80;77.20;;;;;;5094754;28;20052;-67
2020/12/08 03:29:56;;;;;;;24.45;14.88;;;8.80;77.20;;;;;;5095326;28;20024;-67
2020/12/08 03:32:24;;;;;;;28.23;15.68;;;8.70;77.10;;;;;;5095335;28;20031;-67
2020/12/08 03:34:50;;;;;;;29.73;16.67;;;8.70;77.10;;;;;;5095477;28;20024;-67
2020/12/08 03:37:17;;;;;;;29.23;14.88;;;8.70;77.10;;;;;;5094758;28;20032;-67
2020/12/08 03:39:43;;;;;;;32.58;16.05;;;8.70;77.10;;;;;;5096798;28;20026;-67
2020/12/08 03:42:09;;;;;;;28.13;13.63;;;8.70;77.10;;;;;;5094936;28;20402;-67
2020/12/08 03:44:38;;;;;;;26.83;13.98;;;8.70;77.10;;;;;;5095188;28;20111;-67
2020/12/08 03:47:12;;;;;;;27.77;15.48;;;8.80;77.20;;;;;;5095302;28;20040;-67
2020/12/08 03:49:38;;;;;;;29.08;15.45;;;8.70;77.10;;;;;;5094759;28;20036;-67
2020/12/08 03:52:06;;;;;;;33.85;16.30;;;8.70;77.10;;;;;;5095210;28;20110;-67
2020/12/08 03:54:32;;;;;;;25.80;15.13;;;8.70;77.10;;;;;;5096534;28;20020;-67
2020/12/08 03:56:59;;;;;;;26.25;14.23;;;8.70;77.10;;;;;;5096079;28;20463;-67
2020/12/08 03:59:26;;;;;;;31.55;16.48;;;8.70;77.10;;;;;;5094900;28;20032;-67
2020/12/08 04:02:01;;;;;;;29.02;15.32;;;8.70;77.00;;;;;;5095341;28;20028;-67
2020/12/08 04:04:27;;;;;;;28.30;15.98;;;8.70;77.00;;;;;;5094567;28;20369;-67
2020/12/08 04:06:53;;;;;;;27.42;15.00;;;8.70;76.90;;;;;;5094807;28;20093;-67
2020/12/08 04:09:19;;;;;;;28.75;15.05;;;8.70;76.90;;;;;;5096150;28;20048;-66
2020/12/08 04:11:45;;;;;;;27.92;15.32;;;8.70;77.00;;;;;;5094372;28;20063;-67
2020/12/08 04:14:10;;;;;;;28.55;15.38;;;8.70;77.00;;;;;;5095804;28;20027;-67
2020/12/08 04:16:38;;;;;;;26.60;14.73;;;8.70;77.00;;;;;;5094759;28;20077;-67
2020/12/08 04:19:06;;;;;;;26.88;14.35;;;8.70;77.00;;;;;;5094214;28;20475;-67
2020/12/08 04:21:33;;;;;;;27.38;13.95;;;8.70;77.00;;;;;;5094615;28;20028;-67
2020/12/08 04:24:22;;;;;;;28.08;14.85;;;8.60;76.90;;;;;;5089342;28;20039;-67
2020/12/08 04:26:50;;;;;;;26.10;14.82;;;8.70;76.80;;;;;;5094250;28;20071;-67
2020/12/08 04:29:26;;;;;;;27.33;14.05;;;8.60;76.70;;;;;;5094549;28;20073;-67
2020/12/08 04:31:54;;;;;;;28.10;14.25;;;8.60;76.70;;;;;;5094363;28;20123;-67
2020/12/08 04:34:19;;;;;;;23.58;12.52;;;8.60;76.70;;;;;;5095486;28;20063;-67
2020/12/08 04:36:45;;;;;;;28.95;15.13;;;8.60;76.60;;;;;;5095835;28;20028;-67
2020/12/08 04:39:11;;;;;;;26.70;13.82;;;8.60;76.50;;;;;;5094051;28;20399;-67
2020/12/08 04:41:37;;;;;;;25.33;12.90;;;8.60;76.40;;;;;;5095554;28;20028;-66
2020/12/08 04:44:04;;;;;;;27.70;14.13;;;8.50;76.20;;;;;;5095585;28;20475;-66
2020/12/08 04:46:30;;;;;;;32.17;14.25;;;8.50;76.20;;;;;;5094844;28;20479;-67
2020/12/08 04:48:56;;;;;;;29.67;14.75;;;8.50;76.20;;;;;;5095087;28;20495;-67
2020/12/08 04:51:22;;;;;;;23.85;13.45;;;8.60;76.20;;;;;;5095352;28;20032;-66
2020/12/08 04:53:51;;;;;;;23.70;12.88;;;8.50;76.10;;;;;;5094941;28;20038;-68
2020/12/08 04:56:17;;;;;;;28.80;13.27;;;8.50;76.10;;;;;;5095231;28;20043;-67
2020/12/08 04:58:43;;;;;;;25.00;13.13;;;8.50;76.00;;;;;;5095362;28;20020;-67
2020/12/08 05:01:29;;;;;;;26.30;13.07;;;8.50;76.00;;;;;;5094712;28;20040;-67
2020/12/08 05:03:58;;;;;;;25.88;12.43;;;8.50;76.00;;;;;;5094785;28;20392;-67
2020/12/08 05:06:24;;;;;;;26.60;12.95;;;8.50;75.90;;;;;;5094716;28;20070;-67
2020/12/08 05:09:06;;;;;;;23.02;12.73;;;8.50;75.90;;;;;;5094994;28;20444;-67
2020/12/08 05:11:35;;;;;;;28.40;13.48;;;8.50;75.90;;;;;;5095041;28;20395;-71
2020/12/08 05:14:03;;;;;;;24.95;13.27;;;8.50;75.80;;;;;;5094256;28;20056;-67
2020/12/08 05:16:29;;;;;;;21.15;11.43;;;8.50;75.80;;;;;;5093668;28;20438;-67
2020/12/08 05:19:08;;;;;;;21.73;12.98;;;8.40;75.70;;;;;;5095667;28;20024;-67
2020/12/08 05:21:34;;;;;;;26.27;12.95;;;8.40;75.80;;;;;;5094511;28;20067;-67
2020/12/08 05:24:00;;;;;;;24.77;12.90;;;8.40;75.80;;;;;;5094317;28;20482;-67
2020/12/08 05:26:28;;;;;;;23.63;12.95;;;8.40;75.70;;;;;;5094863;28;20078;-67
2020/12/08 05:29:00;;;;;;;26.98;12.77;;;8.40;75.60;;;;;;5094095;28;20119;-67
2020/12/08 05:31:27;;;;;;;25.45;13.18;;;8.40;75.50;;;;;;5095040;28;20036;-67
2020/12/08 05:33:58;;;;;;;25.55;12.98;;;8.40;75.50;;;;;;5094602;28;20051;-67
2020/12/08 05:36:27;;;;;;;24.55;12.95;;;8.40;75.50;;;;;;5094160;28;20422;-67
2020/12/08 05:39:00;;;;;;;29.00;14.82;;;8.40;75.50;;;;;;5094394;28;20032;-67
2020/12/08 05:41:30;;;;;;;27.75;11.95;;;8.40;75.50;;;;;;5094640;28;20047;-67
2020/12/08 05:44:05;;;;;;;31.83;14.75;;;8.40;75.50;;;;;;5093782;28;20382;-67
2020/12/08 05:46:42;;;;;;;26.15;12.80;;;8.40;75.50;;;;;;5094337;28;20071;-67
2020/12/08 05:49:10;;;;;;;23.90;13.32;;;8.40;75.50;;;;;;5093913;28;20126;-67
2020/12/08 05:51:47;;;;;;;26.08;13.98;;;8.40;75.50;;;;;;5094145;28;20124;-66
2020/12/08 05:54:21;;;;;;;26.42;13.57;;;8.40;75.50;;;;;;5094433;28;20032;-67
2020/12/08 05:56:50;;;;;;;25.08;12.30;;;8.40;75.50;;;;;;5093856;28;20099;-67
2020/12/08 05:59:26;;;;;;;24.50;13.10;;;8.40;75.50;;;;;;5094104;28;20036;-67
2020/12/08 06:01:52;;;;;;;27.05;13.52;;;8.40;75.50;;;;;;5094307;28;20063;-67
2020/12/08 06:04:18;;;;;;;26.30;13.90;;;8.30;75.50;;;;;;5093427;28;20039;-67
2020/12/08 06:06:51;;;;;;;25.25;13.75;;;8.40;75.50;;;;;;5093718;28;20040;-67
2020/12/08 06:09:21;;;;;;;;;;;8.40;75.60;;;;;;5094548;28;20044;-66
2020/12/08 06:11:46;;;;;;;18.30;8.82;;;8.40;75.80;;;;;;5093470;28;19943;-68
2020/12/08 06:14:12;;;;;;;21.60;11.10;;;8.40;75.70;;;;;;5093607;28;20051;-67
2020/12/08 06:16:38;;;;;;;24.13;11.95;;;8.40;75.80;;;;;;5093888;28;20100;-67
2020/12/08 06:19:03;;;;;;;24.67;13.63;;;8.30;75.90;;;;;;5088665;28;20032;-66
2020/12/08 06:21:29;;;;;;;24.13;11.98;;;8.40;75.90;;;;;;5092567;28;20390;-67
2020/12/08 06:23:59;;;;;;;22.38;12.77;;;8.30;75.80;;;;;;5091595;28;20044;-68
2020/12/08 06:26:26;;;;;;;23.95;12.38;;;8.30;75.80;;;;;;5091875;28;20123;-68
2020/12/08 06:28:52;;;;;;;25.33;13.90;;;8.30;75.80;;;;;;5091782;28;20367;-68
2020/12/08 06:31:21;;;;;;;29.25;14.55;;;8.30;75.80;;;;;;5090782;28;20024;-68
2020/12/08 06:33:49;;;;;;;23.35;12.82;;;8.30;75.70;;;;;;5091950;28;20372;-68
2020/12/08 06:36:15;;;;;;;24.52;12.30;;;8.30;75.70;;;;;;5089745;28;20031;-68
2020/12/08 06:38:41;;;;;;;22.00;12.13;;;8.30;75.60;;;;;;5091514;28;20028;-69
2020/12/08 06:41:07;;;;;;;22.33;11.57;;;8.30;75.50;;;;;;5091936;28;20043;-69
2020/12/08 06:43:38;;;;;;;20.20;11.18;;;8.30;75.50;;;;;;5092149;28;20024;-74
2020/12/08 06:46:10;;;;;;;26.48;13.18;;;8.30;75.60;;;;;;5091732;28;20020;-68
2020/12/08 06:48:38;;;;;;;29.05;14.80;;;8.30;75.50;;;;;;5092490;28;20348;-67
2020/12/08 06:51:16;;;;;;;25.05;13.00;;;8.30;75.50;;;;;;5092229;28;20024;-67
2020/12/08 06:53:41;;;;;;;25.95;12.52;;;8.30;75.20;;;;;;5090034;28;20036;-67
2020/12/08 06:56:07;;;;;;;21.38;12.38;;;8.30;75.20;;;;;;5091879;28;20031;-68
2020/12/08 06:58:32;;;;;;;25.73;13.75;;;8.30;75.10;;;;;;5092214;28;20111;-67
2020/12/08 07:01:06;;;;;;;26.40;14.15;;;8.30;75.10;;;;;;5091764;28;20376;-68
2020/12/08 07:03:33;;;;;;;23.83;12.82;;;8.30;75.10;;;;;;5093743;28;20380;-69
2020/12/08 07:05:59;;;;;;;22.85;11.75;;;8.30;75.00;;;;;;5095516;28;20059;-69
2020/12/08 07:08:25;;;;;;;23.67;11.50;;;8.30;75.10;;;;;;5095686;28;20444;-69
2020/12/08 07:10:51;;;;;;;21.60;12.23;;;8.30;75.30;;;;;;5092501;28;20424;-70
2020/12/08 07:13:17;;;;;;;23.30;12.25;;;8.30;75.40;;;;;;5089817;28;20769;-68
2020/12/08 07:15:43;;;;;;;22.23;11.68;;;8.30;75.30;;;;;;5095539;28;20032;-70
2020/12/08 07:18:11;;;;;;;25.95;12.02;;;8.20;75.20;;;;;;5096028;28;20109;-70
2020/12/08 07:20:41;;;;;;;20.83;11.00;;;8.30;75.50;;;;;;5095282;28;20481;-70
2020/12/08 07:23:09;;;;;;;29.27;13.50;;;8.20;75.40;;;;;;5094089;28;20052;-70
2020/12/08 07:25:35;;;;;;;20.67;9.77;;;8.30;75.50;;;;;;5092972;28;20024;-70
2020/12/08 07:28:02;;;;;;;20.25;10.73;;;8.30;75.50;;;;;;5094732;28;20047;-72
2020/12/08 07:30:30;;;;;;;22.75;12.25;;;8.30;75.50;;;;;;5093589;28;20024;-69
2020/12/08 07:33:08;;;;;;;19.98;9.98;;;8.30;75.50;;;;;;5091680;28;20028;-69
2020/12/08 07:35:36;;;;;;;18.10;9.90;;;8.20;75.60;;;;;;5092438;28;20038;-69
2020/12/08 07:38:03;;;;;;;25.83;12.07;;;8.20;75.50;;;;;;5095203;28;20051;-69
2020/12/08 07:40:37;;;;;;;21.38;12.05;;;8.20;75.60;;;;;;5093714;28;20074;-68
2020/12/08 07:43:04;;;;;;;22.00;11.45;;;8.20;75.50;;;;;;5094109;28;20038;-69
2020/12/08 07:45:40;;;;;;;19.25;10.70;;;8.20;75.50;;;;;;5095962;28;20497;-68
2020/12/08 07:48:05;;;;;;;23.77;12.05;;;8.20;75.50;;;;;;5096027;28;20047;-68
2020/12/08 07:50:32;;;;;;;24.02;12.38;;;8.20;75.60;;;;;;5095524;28;20028;-69
2020/12/08 07:53:05;;;;;;;18.20;9.20;;;8.20;75.50;;;;;;5096359;28;20467;-68
2020/12/08 07:55:38;;;;;;;24.10;12.80;;;8.30;75.60;;;;;;5095980;28;20039;-69
2020/12/08 07:58:04;;;;;;;;;;;8.20;75.40;;;;;;5096363;28;20032;-71
2020/12/08 08:00:30;;;;;;;22.23;11.07;;;8.20;75.70;;;;;;5096284;28;20365;-70
2020/12/08 08:02:56;;;;;;;20.42;9.80;;;8.30;75.60;;;;;;5095581;28;20101;-69
2020/12/08 08:05:22;;;;;;;17.98;9.13;;;8.20;75.70;;;;;;5095978;28;20498;-70
2020/12/08 08:07:47;;;;;;;21.60;12.15;;;8.20;75.90;;;;;;5096195;28;20043;-70
2020/12/08 08:10:13;;;;;;;23.80;12.98;;;8.10;75.90;;;;;;5095564;28;20030;-70
2020/12/08 08:12:39;;;;;;;22.65;11.20;;;8.20;76.00;;;;;;5094451;28;20399;-69
2020/12/08 08:15:05;;;;;;;23.45;11.68;;;8.10;76.00;;;;;;5095965;28;20023;-70
2020/12/08 08:17:31;;;;;;;22.67;10.73;;;8.10;76.00;;;;;;5095375;28;20032;-70
2020/12/08 08:19:57;;;;;;;23.50;12.93;;;8.10;76.00;;;;;;5094834;28;20038;-70
2020/12/08 08:22:23;;;;;;;24.70;13.57;;;8.20;76.10;;;;;;5095906;28;20386;-69
2020/12/08 08:24:51;;;;;;;20.67;10.35;;;8.20;76.00;;;;;;5094856;28;20060;-71
2020/12/08 08:27:18;;;;;;;20.77;10.90;;;8.10;76.00;;;;;;5095676;28;20082;-70
2020/12/08 08:29:44;;;;;;;21.92;11.63;;;8.10;76.00;;;;;;5095908;28;20020;-72
2020/12/08 08:32:10;;;;;;;21.25;12.05;;;8.20;76.10;;;;;;5094745;28;20040;-67
2020/12/08 08:34:36;;;;;;;19.30;10.60;;;8.20;76.10;;;;;;5094913;28;20023;-71
2020/12/08 08:37:02;;;;;;;19.70;11.68;;;8.20;76.00;;;;;;5095174;28;20032;-70
2020/12/08 08:39:27;;;;;;;20.00;10.20;;;8.20;76.00;;;;;;5094517;28;20024;-70
2020/12/08 08:41:54;;;;;;;19.80;12.13;;;8.20;76.00;;;;;;5095204;28;20036;-70
2020/12/08 08:44:21;;;;;;;18.63;11.50;;;8.20;76.00;;;;;;5095101;28;20078;-68
2020/12/08 08:46:46;;;;;;;22.55;10.35;;;8.20;75.90;;;;;;5094245;28;20063;-69
2020/12/08 08:49:15;;;;;;;26.45;11.98;;;8.10;76.10;;;;;;5095113;28;20105;-69
2020/12/08 08:51:45;;;;;;;20.45;9.23;;;8.20;76.10;;;;;;5094975;28;20161;-69
2020/12/08 08:54:13;;;;;;;26.58;11.52;;;8.10;76.00;;;;;;5095111;28;20072;-69
2020/12/08 08:56:39;;;;;;;23.10;12.18;;;8.20;76.10;;;;;;5095289;28;20036;-69
2020/12/08 08:59:05;;;;;;;22.45;13.35;;;8.10;76.00;;;;;;5094801;28;20367;-69
2020/12/08 09:01:32;;;;;;;23.42;11.85;;;8.20;76.00;;;;;;5094987;28;20032;-69
2020/12/08 09:03:58;;;;;;;23.08;12.98;;;8.10;75.90;;;;;;5094942;28;20028;-69
2020/12/08 09:06:24;;;;;;;22.45;11.43;;;8.10;75.80;;;;;;5094270;28;20093;-69
2020/12/08 09:08:50;;;;;;;25.02;12.27;;;8.20;75.70;;;;;;5094942;28;20024;-69
2020/12/08 09:11:16;;;;;;;32.30;14.70;;;8.10;75.60;;;;;;5094793;28;20073;-69
2020/12/08 09:13:42;;;;;;;20.42;11.73;;;8.20;75.70;;;;;;5094109;28;20039;-68
2020/12/08 09:16:07;;;;;;;25.90;12.45;;;8.20;75.60;;;;;;5094728;28;20057;-68
2020/12/08 09:18:33;;;;;;;22.73;12.30;;;8.20;75.60;;;;;;5094955;28;20415;-69
2020/12/08 09:20:59;;;;;;;22.02;11.60;;;8.20;75.60;;;;;;5094278;28;20036;-69
2020/12/08 09:23:24;;;;;;;26.85;11.70;;;8.20;75.70;;;;;;5094018;28;20048;-69
2020/12/08 09:25:53;;;;;;;23.75;13.48;;;8.20;75.70;;;;;;5094399;28;20028;-69
2020/12/08 09:28:19;;;;;;;24.67;13.32;;;8.30;75.70;;;;;;5093691;28;20135;-69
2020/12/08 09:30:45;;;;;;;42.88;14.85;;;8.20;75.60;;;;;;5094361;28;20111;-69
2020/12/08 09:33:11;;;;;;;22.60;12.13;;;8.20;75.60;;;;;;5094342;28;20032;-69
2020/12/08 09:35:37;;;;;;;27.67;14.38;;;8.20;75.60;;;;;;5093849;28;20035;-69
2020/12/08 09:38:02;;;;;;;24.27;13.80;;;8.20;75.50;;;;;;5094389;28;20043;-69
2020/12/08 09:40:28;;;;;;;24.40;13.30;;;8.20;75.40;;;;;;5094286;28;20030;-69
2020/12/08 09:42:54;;;;;;;27.33;14.57;;;8.30;75.50;;;;;;5093320;28;20028;-69
2020/12/08 09:45:19;;;;;;;25.15;13.13;;;8.30;75.60;;;;;;5093998;28;20081;-69
2020/12/08 09:47:45;;;;;;;22.20;12.77;;;8.30;75.60;;;;;;5093235;28;20089;-69
2020/12/08 09:50:11;;;;;;;31.42;14.15;;;8.30;75.60;;;;;;5093895;28;20034;-69
2020/12/08 09:52:37;;;;;;;24.15;12.48;;;8.30;75.50;;;;;;5094156;28;20063;-69
2020/12/08 09:55:04;;;;;;;22.20;12.27;;;8.30;75.50;;;;;;5093114;28;20055;-70
2020/12/08 09:57:30;;;;;;;22.45;11.80;;;8.30;75.50;;;;;;5093284;28;20028;-69
2020/12/08 09:59:56;;;;;;;24.00;13.68;;;8.30;75.60;;;;;;5093715;28;20101;-70
2020/12/08 10:02:24;;;;;;;24.75;13.60;;;8.40;75.60;;;;;;5093623;28;20024;-69
2020/12/08 10:04:51;;;;;;;24.17;13.85;;;8.40;75.60;;;;;;5093663;28;20039;-67
2020/12/08 10:07:19;;;;;;;26.42;12.90;;;8.40;75.50;;;;;;5093809;28;20043;-69
2020/12/08 10:09:48;;;;;;;27.73;13.32;;;8.40;75.50;;;;;;5093541;28;20024;-69
2020/12/08 10:12:14;;;;;;;24.13;13.25;;;8.40;75.50;;;;;;5093622;28;20032;-69
2020/12/08 10:14:43;;;;;;;29.92;13.43;;;8.40;75.50;;;;;;5093642;28;20031;-69
2020/12/08 10:17:13;;;;;;;29.05;13.15;;;8.50;75.60;;;;;;5092746;28;20042;-69
2020/12/08 10:19:41;;;;;;;26.48;13.32;;;8.40;75.50;;;;;;5093688;28;20034;-72
2020/12/08 10:22:06;;;;;;;22.25;12.02;;;8.40;75.50;;;;;;5093494;28;20039;-69
2020/12/08 10:24:32;;;;;;;26.42;14.48;;;8.50;75.60;;;;;;5092602;28;20054;-69
2020/12/08 10:26:58;;;;;;;20.48;12.52;;;8.40;75.50;;;;;;5092824;28;20123;-70
2020/12/08 10:29:24;;;;;;;22.25;13.18;;;8.50;75.60;;;;;;5094258;28;20111;-70
2020/12/08 10:31:51;;;;;;;47.13;14.68;;;8.40;75.50;;;;;;5092997;28;20475;-71
2020/12/08 10:34:18;;;;;;;25.95;13.02;;;8.50;75.60;;;;;;5093232;28;20028;-69
2020/12/08 10:36:45;;;;;;;34.00;13.55;;;8.50;75.70;;;;;;5092377;28;20069;-68
2020/12/08 10:39:11;;;;;;;22.63;12.73;;;8.50;75.70;;;;;;5092223;28;20433;-69
2020/12/08 10:41:37;;;;;;;21.73;11.63;;;8.60;75.80;;;;;;5092580;28;20029;-69
2020/12/08 10:44:03;;;;;;;29.27;12.57;;;8.60;75.80;;;;;;5093626;28;20110;-69
2020/12/08 10:46:28;;;;;;;24.38;12.43;;;8.60;75.70;;;;;;5094901;28;20080;-69
2020/12/08 10:48:54;;;;;;;23.88;12.82;;;8.60;75.70;;;;;;5092582;28;20040;-70
2020/12/08 10:51:21;;;;;;;21.33;11.48;;;8.60;75.70;;;;;;5092866;28;20020;-69
2020/12/08 10:53:46;;;;;;;23.92;11.75;;;8.60;75.60;;;;;;5093205;28;20522;-69
2020/12/08 10:56:23;;;;;;;24.90;11.40;;;8.60;75.60;;;;;;5092819;28;20109;-70
2020/12/08 10:58:50;;;;;;;20.67;11.93;;;8.70;75.70;;;;;;5092868;28;20043;-68
2020/12/08 11:01:21;;;;;;;21.88;11.57;;;8.70;75.70;;;;;;5092967;28;20028;-68
2020/12/08 11:03:48;;;;;;;23.48;12.25;;;8.70;75.60;;;;;;5093265;28;20036;-69
2020/12/08 11:06:27;;;;;;;20.58;11.13;;;8.70;75.40;;;;;;5092319;28;20059;-69
2020/12/08 11:08:54;;;;;;;19.35;10.95;;;8.70;75.50;;;;;;5093556;28;20051;-69
2020/12/08 11:11:29;;;;;;;18.38;10.68;;;8.70;75.40;;;;;;5093235;28;20034;-69
2020/12/08 11:13:59;;;;;;;18.60;10.82;;;8.80;75.40;;;;;;5092703;28;20032;-69
2020/12/08 11:16:26;;;;;;;19.80;11.50;;;8.80;75.30;;;;;;5093264;28;20111;-69
2020/12/08 11:18:52;;;;;;;20.95;10.75;;;8.80;75.30;;;;;;5093020;28;20024;-69
2020/12/08 11:21:29;;;;;;;22.23;11.93;;;8.80;75.30;;;;;;5085216;28;20039;-68
2020/12/08 11:23:55;;;;;;;21.00;12.77;;;8.80;75.30;;;;;;5092404;28;20052;-68
2020/12/08 11:26:22;;;;;;;20.42;11.35;;;8.80;75.30;;;;;;5092041;28;20121;-68
2020/12/08 11:28:48;;;;;;;18.30;10.98;;;8.90;75.40;;;;;;5093037;28;20032;-68
2020/12/08 11:31:13;;;;;;;21.02;12.35;;;8.80;75.30;;;;;;5092995;28;20429;-69
2020/12/08 11:33:39;;;;;;;19.25;11.73;;;8.90;75.40;;;;;;5092513;28;20047;-69
2020/12/08 11:36:09;;;;;;;19.27;10.63;;;8.90;75.30;;;;;;5091724;28;20103;-68
2020/12/08 11:38:35;;;;;;;21.10;11.55;;;8.90;75.30;;;;;;5092130;28;20036;-68
2020/12/08 11:41:01;;;;;;;20.85;12.23;;;8.90;75.30;;;;;;5091728;28;20741;-68
2020/12/08 11:43:26;;;;;;;20.00;11.27;;;8.90;75.20;;;;;;5092213;28;20102;-69
2020/12/08 11:45:52;;;;;;;20.55;11.63;;;9.00;75.30;;;;;;5092746;28;20068;-69
2020/12/08 11:48:18;;;;;;;25.08;11.93;;;8.90;75.30;;;;;;5094767;28;20449;-68
2020/12/08 11:50:43;;;;;;;19.65;11.07;;;8.90;75.20;;;;;;5096046;28;20073;-68
2020/12/08 11:53:09;;;;;;;17.48;10.05;;;8.90;75.20;;;;;;5096466;28;20028;-69
2020/12/08 11:55:35;;;;;;;19.75;10.55;;;9.00;75.30;;;;;;5095811;28;20039;-68
2020/12/08 11:58:01;;;;;;;20.33;12.00;;;9.10;75.30;;;;;;5095135;28;20038;-68
2020/12/08 12:00:27;;;;;;;21.20;10.55;;;9.00;75.10;;;;;;5096547;28;20420;-69
2020/12/08 12:02:53;;;;;;;18.50;10.90;;;9.00;75.00;;;;;;5095636;28;20032;-69
2020/12/08 12:05:19;;;;;;;16.98;9.60;;;9.00;75.00;;;;;;5096115;28;20028;-69
2020/12/08 12:07:45;;;;;;;19.80;9.95;;;9.10;75.10;;;;;;5096090;28;20054;-69
2020/12/08 12:10:10;;;;;;;18.70;10.13;;;9.10;75.00;;;;;;5095516;28;20455;-68
2020/12/08 12:12:36;;;;;;;19.50;11.05;;;9.10;75.00;;;;;;5095873;28;20055;-68
2020/12/08 12:15:02;;;;;;;18.65;10.80;;;9.10;74.80;;;;;;5095916;28;20051;-68
2020/12/08 12:17:28;;;;;;;19.42;9.98;;;9.10;74.80;;;;;;5094981;28;20024;-69
2020/12/08 12:19:54;;;;;;;15.73;9.68;;;9.10;74.80;;;;;;5095682;28;20467;-69
2020/12/08 12:22:23;;;;;;;21.60;11.95;;;9.20;74.80;;;;;;5095797;28;20501;-69
2020/12/08 12:24:49;;;;;;;21.35;11.27;;;9.20;74.80;;;;;;5094966;28;20036;-69
2020/12/08 12:27:14;;;;;;;18.02;10.48;;;9.10;74.60;;;;;;5095632;28;20036;-69
2020/12/08 12:29:40;;;;;;;18.48;10.20;;;9.20;74.60;;;;;;5095111;28;20581;-69
2020/12/08 12:32:05;;;;;;;23.83;10.10;;;9.20;74.60;;;;;;5095642;28;20057;-68
2020/12/08 12:34:31;;;;;;;16.17;9.63;;;9.20;74.50;;;;;;5095416;28;20063;-68
2020/12/08 12:36:57;;;;;;;18.58;10.48;;;9.20;74.40;;;;;;5094815;28;20036;-69
2020/12/08 12:39:23;;;;;;;17.85;10.50;;;9.20;74.40;;;;;;5095148;28;20024;-68